Time;durP1;ratioP1;P1;durP2;ratioP2;P2;SDS_P1;SDS_P2;PMS_P1;PMS_P2;Temp;Humidity;BMP_temperature;BMP_pressure;BME280_temperature;BME280_humidity;BME280_pressure;Samples;Min_cycle;Max_cycle;Signal;HPM_P1;HPM_P2
2022/06/18 00:01:52;;;;;;;4.55;3.17;;;18.10;92.10;;;;;;5004387;28;20121;-85
2022/06/18 00:04:21;;;;;;;4.65;3.83;;;17.90;92.50;;;;;;5000913;28;20104;-86
2022/06/18 00:06:57;;;;;;;5.78;4.30;;;17.80;92.70;;;;;;4983948;28;20069;-86
2022/06/18 00:09:35;;;;;;;3.78;3.47;;;17.80;93.00;;;;;;5004644;28;20117;-86
2022/06/18 00:15:28;;;;;;;5.40;3.80;;;17.60;93.60;;;;;;5016672;28;20046;-86
2022/06/18 00:18:00;;;;;;;5.05;2.80;;;17.60;93.70;;;;;;4987921;28;20161;-85
2022/06/18 00:20:33;;;;;;;5.82;3.50;;;17.50;94.10;;;;;;4986255;28;20192;-85
2022/06/18 00:23:01;;;;;;;5.60;3.27;;;17.40;94.50;;;;;;5003629;28;20054;-85
2022/06/18 00:25:34;;;;;;;7.82;3.40;;;17.40;94.90;;;;;;5002550;28;20081;-86
2022/06/18 00:28:15;;;;;;;4.45;3.00;;;17.30;95.40;;;;;;4981146;28;20092;-86
2022/06/18 00:30:50;;;;;;;3.47;3.17;;;17.20;95.90;;;;;;5004231;28;20506;-85
2022/06/18 00:33:23;;;;;;;3.38;3.08;;;17.00;96.20;;;;;;5000574;28;20042;-85
2022/06/18 00:35:52;;;;;;;5.18;3.25;;;17.00;96.60;;;;;;5013386;28;20046;-86
2022/06/18 00:38:27;;;;;;;4.07;2.95;;;17.00;96.60;;;;;;5004421;28;20052;-85
2022/06/18 00:40:54;;;;;;;3.58;2.92;;;17.00;96.60;;;;;;5004403;28;20056;-85
2022/06/18 00:43:35;;;;;;;3.63;3.13;;;16.90;97.20;;;;;;4984639;28;20049;-85
2022/06/18 00:46:17;;;;;;;4.00;2.90;;;16.80;97.60;;;;;;5000252;28;20058;-86
2022/06/18 00:49:02;;;;;;;6.32;3.20;;;16.70;98.20;;;;;;5003963;28;20061;-86
2022/06/18 00:51:51;;;;;;;3.50;3.10;;;16.70;98.90;;;;;;5001818;28;20053;-86
2022/06/18 00:54:33;;;;;;;4.85;2.55;;;16.60;99.20;;;;;;5003064;28;20045;-86
2022/06/18 00:57:08;;;;;;;3.75;3.03;;;16.60;99.60;;;;;;5003693;28;20042;-86
2022/06/18 00:59:50;;;;;;;6.85;3.25;;;16.60;99.80;;;;;;5004190;28;20048;-86
2022/06/18 01:02:20;;;;;;;4.45;3.03;;;16.60;99.90;;;;;;5003547;28;20045;-85
2022/06/18 01:04:52;;;;;;;4.80;3.05;;;16.60;99.90;;;;;;5001429;28;20050;-86
2022/06/18 01:07:35;;;;;;;4.15;3.03;;;16.60;99.90;;;;;;5020234;28;20421;-86
2022/06/18 01:10:16;;;;;;;6.10;3.22;;;16.60;99.90;;;;;;5003743;28;20042;-86
2022/06/18 01:12:43;;;;;;;6.43;3.10;;;16.50;99.90;;;;;;5003153;28;20046;-86
2022/06/18 01:15:12;;;;;;;6.88;2.97;;;16.50;99.90;;;;;;5001507;28;20042;-86
2022/06/18 01:17:47;;;;;;;7.60;3.10;;;16.50;99.90;;;;;;4993328;28;20061;-86
2022/06/18 01:20:22;;;;;;;6.20;2.90;;;16.50;99.90;;;;;;5002455;28;20044;-86
2022/06/18 01:22:58;;;;;;;5.72;2.88;;;16.50;99.90;;;;;;5002786;28;20482;-85
2022/06/18 01:25:31;;;;;;;10.02;3.22;;;16.50;99.90;;;;;;4995940;28;20046;-86
2022/06/18 01:27:58;;;;;;;6.22;3.10;;;16.40;99.90;;;;;;5002626;28;20038;-86
2022/06/18 01:30:36;;;;;;;4.90;3.00;;;16.40;99.90;;;;;;5001822;28;20077;-87
2022/06/18 01:33:08;;;;;;;5.00;2.85;;;16.30;99.90;;;;;;4998942;28;20277;-86
2022/06/18 01:35:45;;;;;;;3.30;2.95;;;16.30;99.90;;;;;;5001750;28;20394;-86
2022/06/18 01:38:20;;;;;;;3.67;2.80;;;16.20;99.90;;;;;;5003004;28;20030;-86
2022/06/18 01:43:52;;;;;;;3.53;3.03;;;16.20;99.90;;;;;;5004357;28;20050;-86
2022/06/18 01:46:26;;;;;;;3.63;3.22;;;16.20;99.90;;;;;;5007604;28;20038;-87
2022/06/18 01:48:55;;;;;;;3.80;3.13;;;16.30;99.90;;;;;;5001231;28;20109;-86
2022/06/18 01:51:30;;;;;;;3.97;3.67;;;16.20;99.90;;;;;;5006782;28;20038;-86
2022/06/18 01:54:04;;;;;;;2.70;2.50;;;16.10;99.90;;;;;;5006557;28;20065;-86
2022/06/18 01:56:42;;;;;;;3.22;2.92;;;16.10;99.90;;;;;;5003437;28;20073;-86
2022/06/18 01:59:29;;;;;;;2.90;2.70;;;16.10;99.90;;;;;;5007367;28;20097;-86
2022/06/18 02:01:59;;;;;;;3.08;2.78;;;16.10;99.90;;;;;;4994372;28;20050;-86
2022/06/18 02:04:27;;;;;;;3.38;2.78;;;16.10;99.90;;;;;;4974915;28;20057;-85
2022/06/18 02:07:00;;;;;;;4.47;2.85;;;16.10;99.90;;;;;;4990666;28;20053;-86
2022/06/18 02:09:41;;;;;;;3.60;2.97;;;16.10;99.90;;;;;;5022841;28;20052;-86
2022/06/18 02:12:14;;;;;;;3.90;2.95;;;16.00;99.90;;;;;;5006484;28;20477;-86
2022/06/18 02:14:50;;;;;;;3.50;2.95;;;15.90;99.90;;;;;;5002486;28;20046;-87
2022/06/18 02:17:18;;;;;;;3.63;2.97;;;15.90;99.90;;;;;;5005491;28;20046;-87
2022/06/18 02:19:53;;;;;;;4.78;2.70;;;15.80;99.90;;;;;;5017132;28;20069;-86
2022/06/18 02:22:33;;;;;;;3.20;2.90;;;15.80;99.90;;;;;;5006886;28;20050;-86
2022/06/18 02:25:07;;;;;;;4.50;3.13;;;15.80;99.90;;;;;;5005440;28;20052;-86
2022/06/18 02:27:34;;;;;;;3.78;3.00;;;15.80;99.90;;;;;;4990418;28;20533;-86
2022/06/18 02:30:01;;;;;;;5.47;2.70;;;15.70;99.90;;;;;;5000250;28;20078;-86
2022/06/18 02:32:45;;;;;;;3.38;3.08;;;15.70;99.90;;;;;;5006046;28;20398;-86
2022/06/18 02:35:13;;;;;;;2.88;2.53;;;15.60;99.90;;;;;;5005452;28;20042;-86
2022/06/18 02:37:46;;;;;;;3.90;3.50;;;15.50;99.90;;;;;;5005997;28;20068;-86
2022/06/18 02:40:22;;;;;;;4.57;4.18;;;15.40;99.90;;;;;;4990813;28;20042;-86
2022/06/18 02:42:57;;;;;;;5.15;3.92;;;15.40;99.90;;;;;;4999513;28;20073;-85
2022/06/18 02:45:28;;;;;;;;;;;15.20;99.90;;;;;;5005813;28;20042;-86
2022/06/18 02:48:00;;;;;;;5.43;4.25;;;15.10;99.90;;;;;;5022414;28;20004;-86
2022/06/18 02:50:33;;;;;;;4.72;4.15;;;15.20;99.90;;;;;;5006287;28;20049;-86
2022/06/18 02:53:02;;;;;;;4.10;3.30;;;15.20;99.90;;;;;;5006345;28;20046;-85
2022/06/18 02:55:43;;;;;;;3.20;2.90;;;15.30;99.90;;;;;;4996597;28;20042;-86
2022/06/18 02:58:17;;;;;;;3.67;3.38;;;15.20;99.90;;;;;;5006655;28;20121;-86
2022/06/18 03:00:56;;;;;;;4.00;3.25;;;15.20;99.90;;;;;;5006244;28;20042;-86
2022/06/18 03:03:25;;;;;;;3.40;3.00;;;15.20;99.90;;;;;;5005981;28;20056;-86
2022/06/18 03:05:55;;;;;;;2.92;2.72;;;15.10;99.90;;;;;;5004924;28;20114;-86
2022/06/18 03:08:29;;;;;;;3.45;3.03;;;15.10;99.90;;;;;;5005718;28;20049;-86
2022/06/18 03:13:56;;;;;;;3.28;2.92;;;15.10;99.90;;;;;;5006220;28;20101;-86
2022/06/18 03:16:26;;;;;;;3.45;2.90;;;15.10;99.90;;;;;;5003862;28;20100;-86
2022/06/18 03:18:59;;;;;;;;;;;15.10;99.90;;;;;;5005297;28;20053;-86
2022/06/18 03:21:39;;;;;;;5.47;3.03;;;15.10;99.90;;;;;;5005093;28;19922;-86
2022/06/18 03:24:06;;;;;;;5.30;3.08;;;15.10;99.90;;;;;;5006633;28;20050;-86
2022/06/18 03:26:39;;;;;;;4.68;3.47;;;15.20;99.90;;;;;;5005718;28;20099;-86
2022/06/18 03:29:10;;;;;;;3.53;2.90;;;15.20;99.90;;;;;;5006832;28;20057;-86
2022/06/18 03:31:37;;;;;;;3.95;2.70;;;15.30;99.90;;;;;;5006484;28;20584;-86
2022/06/18 03:34:05;;;;;;;4.20;2.88;;;15.40;99.90;;;;;;4990082;28;20053;-86
2022/06/18 03:36:32;;;;;;;4.38;2.97;;;15.50;99.90;;;;;;5006033;28;20045;-86
2022/06/18 03:39:06;;;;;;;3.55;2.58;;;15.50;99.90;;;;;;5003648;28;20125;-87
2022/06/18 03:41:34;;;;;;;5.93;3.45;;;15.60;99.90;;;;;;4992834;28;20138;-86
2022/06/18 03:44:01;;;;;;;5.47;4.03;;;15.60;99.90;;;;;;5005662;28;20045;-86
2022/06/18 03:46:30;;;;;;;5.50;3.45;;;15.60;99.90;;;;;;4987164;28;20054;-86
2022/06/18 03:49:02;;;;;;;3.58;2.95;;;15.50;99.90;;;;;;5004278;28;20056;-86
2022/06/18 03:51:32;;;;;;;4.45;3.47;;;15.40;99.90;;;;;;4970466;28;20042;-85
2022/06/18 03:54:04;;;;;;;5.65;4.43;;;15.40;99.90;;;;;;4975595;28;20038;-86
2022/06/18 03:56:32;;;;;;;6.13;4.25;;;15.40;99.90;;;;;;5003873;28;20053;-87
2022/06/18 03:59:02;;;;;;;7.25;4.82;;;15.40;99.90;;;;;;5005046;28;20042;-86
2022/06/18 04:01:40;;;;;;;5.30;4.25;;;15.40;99.90;;;;;;5004906;28;20591;-86
2022/06/18 04:04:08;;;;;;;6.32;5.05;;;15.30;99.90;;;;;;5004837;28;20046;-86
2022/06/18 04:06:44;;;;;;;5.63;4.75;;;15.30;99.90;;;;;;5002845;28;20046;-87
2022/06/18 04:09:30;;;;;;;6.00;4.80;;;15.30;99.90;;;;;;5002573;28;20093;-87
2022/06/18 04:11:58;;;;;;;5.28;4.78;;;15.20;99.90;;;;;;4999083;28;20048;-87
2022/06/18 04:14:26;;;;;;;5.30;4.80;;;15.20;99.90;;;;;;5004329;28;20049;-86
2022/06/18 04:17:15;;;;;;;5.32;4.82;;;15.20;99.90;;;;;;5001432;28;20085;-87
2022/06/18 04:19:42;;;;;;;6.55;5.10;;;15.20;99.90;;;;;;4997211;28;20076;-87
2022/06/18 04:22:16;;;;;;;7.32;5.20;;;15.30;99.90;;;;;;5000689;28;20104;-87
2022/06/18 04:24:55;;;;;;;5.40;4.85;;;15.40;99.90;;;;;;4984619;28;20129;-86
2022/06/18 04:27:22;;;;;;;5.22;4.72;;;15.40;99.90;;;;;;5020128;28;20049;-87
2022/06/18 04:29:48;;;;;;;6.00;4.95;;;15.50;99.90;;;;;;5001270;28;20081;-86
2022/06/18 04:32:17;;;;;;;5.22;4.60;;;15.50;99.90;;;;;;4969992;28;20045;-86
2022/06/18 04:34:45;;;;;;;7.28;4.80;;;15.60;99.90;;;;;;4983609;28;20551;-87
2022/06/18 04:37:29;;;;;;;5.32;4.82;;;15.60;99.90;;;;;;5003141;28;20399;-86
2022/06/18 04:40:22;;;;;;;7.05;6.00;;;15.70;99.90;;;;;;4997655;28;20097;-87
2022/06/18 04:43:17;;;;;;;11.50;6.32;;;15.70;99.90;;;;;;5000631;28;20072;-86
2022/06/18 04:45:53;;;;;;;11.25;6.60;;;15.60;99.90;;;;;;4982937;28;20080;-87
2022/06/18 04:48:23;;;;;;;14.30;7.55;;;15.60;99.90;;;;;;5003085;28;20073;-87
2022/06/18 04:50:55;;;;;;;6.97;5.60;;;15.50;99.90;;;;;;5003765;28;20141;-87
2022/06/18 04:53:28;;;;;;;10.13;5.32;;;15.60;99.90;;;;;;4978611;28;20513;-87
2022/06/18 04:56:07;;;;;;;7.72;5.43;;;15.60;99.90;;;;;;4995481;28;20046;-86
2022/06/18 04:58:43;;;;;;;7.72;5.45;;;15.60;99.90;;;;;;5002756;28;20218;-86
2022/06/18 05:01:18;;;;;;;8.02;6.30;;;15.70;99.90;;;;;;5003114;28;20038;-87
2022/06/18 05:03:49;;;;;;;6.78;5.50;;;15.70;99.90;;;;;;5020214;28;20050;-87
2022/06/18 05:06:33;;;;;;;6.15;5.20;;;15.80;99.90;;;;;;4998998;28;20046;-87
2022/06/18 05:09:12;;;;;;;5.53;5.03;;;15.80;99.90;;;;;;5003032;28;20057;-87
2022/06/18 05:11:59;;;;;;;6.13;4.68;;;15.90;99.90;;;;;;4984080;28;20046;-87
2022/06/18 05:14:46;;;;;;;7.18;5.57;;;16.00;99.90;;;;;;5000310;28;20088;-87
2022/06/18 05:17:25;;;;;;;9.35;6.45;;;16.10;99.90;;;;;;5000441;28;20042;-86
2022/06/18 05:19:57;;;;;;;6.57;5.70;;;16.10;99.90;;;;;;5001798;28;20038;-87
2022/06/18 05:22:27;;;;;;;10.85;6.28;;;16.20;99.90;;;;;;5002876;28;20050;-86
2022/06/18 05:25:03;;;;;;;7.15;6.40;;;16.20;99.90;;;;;;5000443;28;20041;-87
2022/06/18 05:27:36;;;;;;;10.63;7.13;;;16.30;99.90;;;;;;5002380;28;20076;-87
2022/06/18 05:30:25;;;;;;;10.02;6.95;;;16.30;99.90;;;;;;5009039;28;20116;-87
2022/06/18 05:32:54;;;;;;;16.03;9.10;;;16.40;99.90;;;;;;5002237;28;20048;-86
2022/06/18 05:35:28;;;;;;;14.70;8.65;;;16.50;99.90;;;;;;5001404;28;20297;-87
2022/06/18 05:37:55;;;;;;;12.88;8.20;;;16.60;99.90;;;;;;5002510;28;20073;-87
2022/06/18 05:40:26;;;;;;;9.40;8.38;;;16.60;99.90;;;;;;5001546;28;20114;-87
2022/06/18 05:42:54;;;;;;;8.63;7.35;;;16.70;99.90;;;;;;5013584;28;20517;-87
2022/06/18 05:45:26;;;;;;;8.40;6.43;;;16.70;99.90;;;;;;5000806;28;20034;-87
2022/06/18 05:47:53;;;;;;;6.90;6.20;;;16.80;99.90;;;;;;4999035;28;20050;-86
2022/06/18 05:50:20;;;;;;;7.65;6.28;;;16.90;99.90;;;;;;4996539;28;20046;-87
2022/06/18 05:52:52;;;;;;;7.20;6.50;;;17.00;99.90;;;;;;4990362;28;20136;-85
2022/06/18 05:55:42;;;;;;;5.40;4.90;;;17.00;99.90;;;;;;4981194;28;20046;-87
2022/06/18 05:58:24;;;;;;;6.15;5.57;;;17.10;99.90;;;;;;4997495;28;20049;-87
2022/06/18 06:01:04;;;;;;;8.00;5.47;;;17.20;99.90;;;;;;5001397;28;20096;-86
2022/06/18 06:03:32;;;;;;;9.48;6.85;;;17.30;99.90;;;;;;4998512;28;20093;-87
2022/06/18 06:06:04;;;;;;;10.60;7.80;;;17.40;99.90;;;;;;4999567;28;20042;-87
2022/06/18 06:08:34;;;;;;;9.23;7.20;;;17.40;99.90;;;;;;4987490;28;20049;-87
2022/06/18 06:13:51;;;;;;;6.63;4.93;;;17.60;99.90;;;;;;5011265;28;20053;-88
2022/06/18 06:16:20;;;;;;;7.45;4.90;;;17.70;99.90;;;;;;4998843;28;20513;-86
2022/06/18 06:18:47;;;;;;;5.63;4.82;;;17.80;99.90;;;;;;4985357;28;20113;-88
2022/06/18 06:21:14;;;;;;;7.45;5.72;;;18.00;99.90;;;;;;4984886;28;20065;-88
2022/06/18 06:23:41;;;;;;;5.82;4.30;;;18.10;99.90;;;;;;4978802;28;20042;-87
2022/06/18 06:26:21;;;;;;;6.03;4.70;;;18.20;99.90;;;;;;4998227;28;20042;-88
2022/06/18 06:28:54;;;;;;;5.53;4.68;;;18.30;99.90;;;;;;5001591;28;20047;-88
2022/06/18 06:31:20;;;;;;;5.45;4.72;;;18.40;99.90;;;;;;4991682;28;20133;-88
2022/06/18 06:33:48;;;;;;;6.05;4.60;;;18.50;99.90;;;;;;4997634;28;20114;-87
2022/06/18 06:36:20;;;;;;;5.07;4.60;;;18.60;99.90;;;;;;5015914;28;20041;-88
2022/06/18 06:38:46;;;;;;;5.72;4.90;;;18.70;99.90;;;;;;5003232;28;20076;-86
2022/06/18 06:41:22;;;;;;;7.20;6.50;;;18.80;99.90;;;;;;5005312;28;20480;-87
2022/06/18 06:43:49;;;;;;;7.05;5.47;;;18.90;99.90;;;;;;5008700;28;20050;-88
2022/06/18 06:46:17;;;;;;;7.22;5.93;;;19.00;99.90;;;;;;4998701;28;20053;-88
2022/06/18 06:48:48;;;;;;;7.18;5.50;;;19.10;99.90;;;;;;5019385;28;20565;-88
2022/06/18 06:51:23;;;;;;;7.32;5.88;;;19.20;99.90;;;;;;5004174;28;20129;-87
2022/06/18 06:53:51;;;;;;;8.18;6.20;;;19.30;99.90;;;;;;5008486;28;20141;-88
2022/06/18 06:59:11;;;;;;;6.03;5.43;;;19.50;99.90;;;;;;5004693;28;20103;-87
2022/06/18 07:01:38;;;;;;;6.72;4.95;;;19.60;99.90;;;;;;4987575;28;20486;-88
2022/06/18 07:04:07;;;;;;;7.85;5.43;;;19.70;99.90;;;;;;4982561;28;20528;-87
2022/06/18 07:06:39;;;;;;;5.55;4.65;;;19.80;99.90;;;;;;5000192;28;20101;-87
2022/06/18 07:09:07;;;;;;;4.78;4.20;;;19.90;99.90;;;;;;4985678;28;20549;-88
2022/06/18 07:11:35;;;;;;;4.70;4.20;;;20.00;99.90;;;;;;5004218;28;20053;-88
2022/06/18 07:14:01;;;;;;;4.68;4.28;;;20.10;99.90;;;;;;5003287;28;20049;-87
2022/06/18 07:16:28;;;;;;;6.35;4.40;;;20.20;99.90;;;;;;5003661;28;20129;-88
2022/06/18 07:19:00;;;;;;;7.45;5.25;;;20.30;99.90;;;;;;5021320;28;20100;-87
2022/06/18 07:21:32;;;;;;;5.45;4.50;;;20.40;99.90;;;;;;5000645;28;20128;-88
2022/06/18 07:23:59;;;;;;;5.32;4.43;;;20.50;99.90;;;;;;4986850;28;20070;-87
2022/06/18 07:26:26;;;;;;;5.22;4.72;;;20.60;99.90;;;;;;4985278;28;20577;-87
2022/06/18 07:28:58;;;;;;;6.78;4.40;;;20.70;99.90;;;;;;4996403;28;20113;-87
2022/06/18 07:31:27;;;;;;;6.22;4.93;;;20.80;99.90;;;;;;5004103;28;20070;-85
2022/06/18 07:34:00;;;;;;;5.43;4.30;;;20.90;99.90;;;;;;4956646;28;20038;-87
2022/06/18 07:36:27;;;;;;;6.30;4.10;;;21.00;99.90;;;;;;5000366;28;20136;-87
2022/06/18 07:38:54;;;;;;;4.97;4.40;;;21.20;99.90;;;;;;4985715;28;20095;-86
2022/06/18 07:41:24;;;;;;;6.43;4.03;;;21.20;99.90;;;;;;5015173;28;20069;-88
2022/06/18 07:43:57;;;;;;;5.18;4.68;;;21.40;99.90;;;;;;5000112;28;20053;-88
2022/06/18 07:46:25;;;;;;;5.10;4.50;;;21.50;99.90;;;;;;5001585;28;20130;-88
2022/06/18 07:48:52;;;;;;;7.65;4.88;;;21.70;99.90;;;;;;5003384;28;20046;-88
2022/06/18 07:51:19;;;;;;;5.20;4.68;;;21.80;99.90;;;;;;5002243;28;20046;-88
2022/06/18 07:53:45;;;;;;;4.85;4.38;;;21.90;99.90;;;;;;5001433;28;20124;-88
2022/06/18 07:56:16;;;;;;;4.85;3.70;;;22.00;99.90;;;;;;4993595;28;20046;-88
2022/06/18 07:58:43;;;;;;;6.93;4.57;;;22.20;99.90;;;;;;5002506;28;20076;-86
2022/06/18 08:01:10;;;;;;;8.93;4.60;;;22.30;99.90;;;;;;4999937;28;20047;-87
2022/06/18 08:03:38;;;;;;;5.55;5.03;;;22.40;99.90;;;;;;5017986;28;20065;-88
2022/06/18 08:06:07;;;;;;;7.60;4.13;;;22.60;99.90;;;;;;5001326;28;20042;-89
2022/06/18 08:08:34;;;;;;;4.45;4.05;;;22.70;99.90;;;;;;5003019;28;20060;-88
2022/06/18 08:11:02;;;;;;;4.40;4.00;;;22.90;99.90;;;;;;5004086;28;20056;-89
2022/06/18 08:13:34;;;;;;;;;;;23.00;99.90;;;;;;5003014;28;20050;-87
2022/06/18 08:16:07;;;;;;;4.68;3.90;;;23.10;99.90;;;;;;5000237;28;19927;-88
2022/06/18 08:18:36;;;;;;;4.18;3.78;;;23.20;99.90;;;;;;5000758;28;20064;-88
2022/06/18 08:21:11;;;;;;;5.78;4.25;;;23.40;99.90;;;;;;4999968;28;20105;-88
2022/06/18 08:23:39;;;;;;;5.38;3.80;;;23.50;99.90;;;;;;5004088;28;20109;-88
2022/06/18 08:26:07;;;;;;;5.70;3.92;;;23.60;99.90;;;;;;5001773;28;20088;-88
2022/06/18 08:28:35;;;;;;;4.22;3.40;;;23.70;99.90;;;;;;5006565;28;20054;-88
2022/06/18 08:31:04;;;;;;;4.47;3.72;;;23.90;99.90;;;;;;5003015;28;20303;-88
2022/06/18 08:33:31;;;;;;;4.53;3.80;;;24.00;99.90;;;;;;5002629;28;20103;-88
2022/06/18 08:36:01;;;;;;;3.88;3.47;;;24.10;99.90;;;;;;5001874;28;20044;-88
2022/06/18 08:38:28;;;;;;;6.47;3.08;;;24.30;99.90;;;;;;5000009;28;20068;-88
2022/06/18 08:41:18;;;;;;;3.05;2.85;;;24.40;99.90;;;;;;5001261;28;20049;-88
2022/06/18 08:44:17;;;;;;;3.40;2.90;;;24.50;99.80;;;;;;5001541;28;20050;-88
2022/06/18 08:46:56;;;;;;;3.78;2.70;;;24.70;97.70;;;;;;4984361;28;20483;-88
2022/06/18 08:49:52;;;;;;;4.00;2.55;;;24.90;96.80;;;;;;4997760;28;20042;-88
2022/06/18 08:52:40;;;;;;;3.03;2.72;;;25.00;96.60;;;;;;4984123;28;20671;-88
2022/06/18 08:55:35;;;;;;;5.35;2.70;;;25.20;95.90;;;;;;4985517;28;20121;-88
2022/06/18 08:58:11;;;;;;;3.17;2.58;;;25.30;94.20;;;;;;5019087;28;20102;-89
2022/06/18 09:00:45;;;;;;;2.15;1.92;;;25.40;93.60;;;;;;5002494;28;20093;-88
2022/06/18 09:03:37;;;;;;;3.45;2.45;;;25.50;91.40;;;;;;5002954;28;20061;-88
2022/06/18 09:06:24;;;;;;;4.13;2.30;;;25.70;90.10;;;;;;5001489;28;20115;-85
2022/06/18 09:09:04;;;;;;;3.38;2.33;;;25.80;89.80;;;;;;4983579;28;20122;-88
2022/06/18 09:11:43;;;;;;;6.47;2.85;;;26.00;89.10;;;;;;5001794;28;20106;-88
2022/06/18 09:14:19;;;;;;;2.35;2.15;;;26.10;83.30;;;;;;4985188;28;20140;-88
2022/06/18 09:16:59;;;;;;;1.70;1.60;;;26.30;77.30;;;;;;5001367;28;20056;-88
2022/06/18 09:19:28;;;;;;;2.47;1.80;;;26.40;73.40;;;;;;4999256;28;20096;-88
2022/06/18 09:22:05;;;;;;;2.50;1.88;;;26.60;72.70;;;;;;5001798;28;20132;-88
2022/06/18 09:24:44;;;;;;;3.13;1.90;;;26.70;73.80;;;;;;5001718;28;20061;-88
2022/06/18 09:27:40;;;;;;;2.63;1.95;;;26.90;71.40;;;;;;5014205;28;20050;-88
2022/06/18 09:30:20;;;;;;;2.05;1.85;;;27.00;74.30;;;;;;5000018;28;20056;-87
2022/06/18 09:33:24;;;;;;;1.77;1.67;;;27.20;70.50;;;;;;5002992;28;20045;-87
2022/06/18 09:36:01;;;;;;;4.40;2.17;;;27.30;70.40;;;;;;5000886;28;20042;-88
2022/06/18 09:38:45;;;;;;;2.30;1.90;;;27.40;71.00;;;;;;4977555;28;20409;-88
2022/06/18 09:41:26;;;;;;;1.85;1.75;;;27.50;71.10;;;;;;4963857;28;20062;-87
2022/06/18 09:44:12;;;;;;;2.30;2.10;;;27.60;68.90;;;;;;4997208;28;20061;-87
2022/06/18 09:47:12;;;;;;;3.55;2.20;;;27.70;70.10;;;;;;4999685;28;20286;-88
2022/06/18 09:49:46;;;;;;;4.20;2.47;;;27.80;68.50;;;;;;4985048;28;20050;-88
2022/06/18 09:52:33;;;;;;;2.13;1.90;;;27.90;66.10;;;;;;5001439;28;20113;-88
2022/06/18 09:55:09;;;;;;;3.15;2.20;;;28.00;65.30;;;;;;5000212;28;20046;-88
2022/06/18 09:57:42;;;;;;;6.85;2.70;;;28.10;65.00;;;;;;4998581;28;20042;-88
2022/06/18 10:00:19;;;;;;;3.95;2.42;;;28.20;66.20;;;;;;4974772;28;20137;-88
2022/06/18 10:03:05;;;;;;;4.85;2.20;;;28.20;67.10;;;;;;5000353;28;20121;-87
2022/06/18 10:08:39;;;;;;;3.45;2.55;;;28.50;64.10;;;;;;4999573;28;20049;-88
2022/06/18 10:11:09;;;;;;;3.20;2.90;;;28.70;63.10;;;;;;5002052;28;20052;-88
2022/06/18 10:13:47;;;;;;;2.78;2.58;;;28.60;64.20;;;;;;5001722;28;20046;-88
2022/06/18 10:16:33;;;;;;;2.67;2.47;;;28.70;65.40;;;;;;4999025;28;20137;-86
2022/06/18 10:19:25;;;;;;;2.65;2.45;;;28.80;64.70;;;;;;5001643;28;20052;-87
2022/06/18 10:22:34;;;;;;;4.32;2.60;;;28.80;64.70;;;;;;5000300;28;20038;-89
2022/06/18 10:25:29;;;;;;;3.45;2.92;;;28.90;62.60;;;;;;5007618;28;20084;-88
2022/06/18 10:28:21;;;;;;;3.28;2.50;;;28.90;63.80;;;;;;5000902;28;20081;-89
2022/06/18 10:30:57;;;;;;;2.90;2.70;;;29.20;64.60;;;;;;5000913;28;20050;-89
2022/06/18 10:33:58;;;;;;;3.38;2.67;;;29.20;61.20;;;;;;5000299;28;20052;-89
2022/06/18 10:36:44;;;;;;;5.28;2.70;;;29.30;60.20;;;;;;5000569;28;20140;-87
2022/06/18 10:39:25;;;;;;;4.82;2.42;;;29.40;62.30;;;;;;5001234;28;20394;-89
2022/06/18 10:42:30;;;;;;;2.63;2.30;;;29.60;59.40;;;;;;4997060;28;20038;-88
2022/06/18 10:45:18;;;;;;;2.78;2.40;;;29.60;59.30;;;;;;4965916;28;20045;-88
2022/06/18 10:47:53;;;;;;;2.85;2.50;;;29.80;58.80;;;;;;5000249;28;20042;-88
2022/06/18 10:50:25;;;;;;;4.07;2.30;;;29.80;59.10;;;;;;5017876;28;20045;-89
2022/06/18 10:53:04;;;;;;;2.53;2.33;;;30.00;61.60;;;;;;4996715;28;20050;-88
2022/06/18 10:55:31;;;;;;;8.25;2.28;;;30.00;58.70;;;;;;5012414;28;20065;-88
2022/06/18 10:58:14;;;;;;;3.65;2.38;;;30.10;59.00;;;;;;5014514;28;20048;-89
2022/06/18 11:01:05;;;;;;;3.33;3.03;;;30.20;59.20;;;;;;4992579;28;20572;-89
2022/06/18 11:03:37;;;;;;;2.90;2.30;;;30.30;58.20;;;;;;4996941;28;20074;-86
2022/06/18 11:06:13;;;;;;;2.58;2.38;;;30.50;58.90;;;;;;4997814;28;20042;-88
2022/06/18 11:08:55;;;;;;;2.60;2.40;;;30.60;56.80;;;;;;4982049;28;20046;-87
2022/06/18 11:11:29;;;;;;;2.78;2.20;;;30.70;56.50;;;;;;4998727;28;20418;-89
2022/06/18 11:14:27;;;;;;;5.03;2.50;;;30.60;56.30;;;;;;4998794;28;20046;-88
2022/06/18 11:16:59;;;;;;;4.35;2.38;;;30.70;56.10;;;;;;4979534;28;20133;-88
2022/06/18 11:19:34;;;;;;;4.22;2.55;;;30.70;55.50;;;;;;4982160;28;20034;-88
2022/06/18 11:22:17;;;;;;;4.32;2.25;;;30.70;56.00;;;;;;4981367;28;20064;-88
2022/06/18 11:24:59;;;;;;;5.30;2.50;;;30.70;56.70;;;;;;4998499;28;20046;-88
2022/06/18 11:27:35;;;;;;;2.85;2.22;;;30.90;54.80;;;;;;4985128;28;20057;-89
2022/06/18 11:30:17;;;;;;;4.78;2.55;;;31.00;55.50;;;;;;4999700;28;20042;-88
2022/06/18 11:32:49;;;;;;;8.05;3.35;;;31.10;55.30;;;;;;4999560;28;20046;-87
2022/06/18 11:35:26;;;;;;;4.78;2.40;;;31.10;56.10;;;;;;4993763;28;20044;-88
2022/06/18 11:38:01;;;;;;;2.88;2.35;;;31.30;55.60;;;;;;4998718;28;20049;-88
2022/06/18 11:40:28;;;;;;;3.90;2.40;;;31.40;53.50;;;;;;4998338;28;20113;-88
2022/06/18 11:43:28;;;;;;;4.32;2.50;;;31.40;53.10;;;;;;4998392;28;20524;-88
2022/06/18 11:46:07;;;;;;;3.28;2.22;;;31.20;52.90;;;;;;4998619;28;20056;-88
2022/06/18 11:48:51;;;;;;;3.75;2.28;;;31.30;53.80;;;;;;4998122;28;20044;-89
2022/06/18 11:51:41;;;;;;;4.97;2.90;;;31.50;53.20;;;;;;4995013;28;20066;-89
2022/06/18 11:54:34;;;;;;;3.50;2.20;;;31.60;53.00;;;;;;4989249;28;20057;-88
2022/06/18 11:57:22;;;;;;;3.85;2.72;;;31.70;53.20;;;;;;4998333;28;20561;-88
2022/06/18 12:00:05;;;;;;;7.97;2.30;;;31.70;53.70;;;;;;4998088;28;20136;-88
2022/06/18 12:02:59;;;;;;;4.22;2.30;;;31.80;54.60;;;;;;4997843;28;21050;-89
2022/06/18 12:05:51;;;;;;;7.38;2.58;;;32.10;54.10;;;;;;4980838;28;20136;-89
2022/06/18 12:08:24;;;;;;;4.70;2.78;;;32.30;52.00;;;;;;4997796;28;20076;-88
2022/06/18 12:11:05;;;;;;;6.65;2.63;;;32.50;51.20;;;;;;4996914;28;20056;-86
2022/06/18 12:13:46;;;;;;;6.57;3.03;;;32.50;50.50;;;;;;4997303;28;20477;-86
2022/06/18 12:16:26;;;;;;;6.85;2.60;;;32.60;50.40;;;;;;4996708;28;20045;-87
2022/06/18 12:19:00;;;;;;;6.20;2.83;;;32.60;50.20;;;;;;4996995;28;20077;-87
2022/06/18 12:21:50;;;;;;;5.50;2.05;;;32.60;50.10;;;;;;4997099;28;20057;-87
2022/06/18 12:24:44;;;;;;;7.50;2.88;;;32.50;51.10;;;;;;4998104;28;20050;-87
2022/06/18 12:27:13;;;;;;;7.18;2.88;;;32.60;50.00;;;;;;4995883;28;20057;-87
2022/06/18 12:30:03;;;;;;;8.15;2.85;;;32.60;49.80;;;;;;4997853;28;20464;-87
2022/06/18 12:32:42;;;;;;;4.45;2.53;;;32.70;49.50;;;;;;4996703;28;20045;-87
2022/06/18 12:35:56;;;;;;;5.60;2.70;;;32.60;49.50;;;;;;4982057;28;20034;-87
2022/06/18 12:38:49;;;;;;;7.05;2.45;;;32.60;47.50;;;;;;4989853;28;20052;-87
2022/06/18 12:41:43;;;;;;;5.68;2.60;;;32.80;49.30;;;;;;4969778;28;20145;-87
2022/06/18 12:44:58;;;;;;;4.00;2.45;;;32.80;47.50;;;;;;4997576;28;20567;-87
2022/06/18 12:47:56;;;;;;;6.97;2.30;;;32.80;49.60;;;;;;4962744;28;20417;-87
2022/06/18 12:50:44;;;;;;;4.60;2.15;;;33.00;49.00;;;;;;4990084;28;20077;-87
2022/06/18 12:53:42;;;;;;;7.38;2.20;;;33.00;49.50;;;;;;4997824;28;20054;-87
2022/06/18 12:56:47;;;;;;;6.38;2.13;;;33.10;48.40;;;;;;4980356;28;20065;-85
2022/06/18 12:59:34;;;;;;;10.13;2.40;;;33.20;48.70;;;;;;5002671;28;20038;-88
2022/06/18 13:02:07;;;;;;;8.00;2.55;;;33.20;46.70;;;;;;5013971;28;20520;-88
2022/06/18 13:04:50;;;;;;;6.43;2.60;;;33.10;47.20;;;;;;4997136;28;20148;-86
2022/06/18 13:07:40;;;;;;;8.88;2.40;;;33.20;45.90;;;;;;4988761;28;20053;-88
2022/06/18 13:10:25;;;;;;;6.43;1.83;;;33.30;46.10;;;;;;5008168;28;20042;-88
2022/06/18 13:13:28;;;;;;;5.88;2.28;;;33.40;46.30;;;;;;4997095;28;20085;-87
2022/06/18 13:16:14;;;;;;;5.93;2.28;;;33.50;45.90;;;;;;5009501;28;20046;-87
2022/06/18 13:19:04;;;;;;;4.95;2.08;;;33.60;45.50;;;;;;4996765;28;20057;-88
2022/06/18 13:21:36;;;;;;;7.25;2.38;;;33.70;46.50;;;;;;4997518;28;20046;-88
2022/06/18 13:30:10;;;;;;;10.70;2.80;;;33.90;46.50;;;;;;4976234;28;20049;-87
2022/06/18 13:32:54;;;;;;;10.95;2.70;;;33.90;45.70;;;;;;4976156;28;20054;-87
2022/06/18 13:35:41;;;;;;;10.70;2.83;;;34.10;45.70;;;;;;4966909;28;20502;-87
2022/06/18 13:38:34;;;;;;;6.78;2.95;;;34.10;45.30;;;;;;5003894;28;20038;-87
2022/06/18 13:41:27;;;;;;;12.15;3.38;;;34.20;44.40;;;;;;5004682;28;20090;-88
2022/06/18 13:44:24;;;;;;;10.57;3.63;;;34.40;45.10;;;;;;4995837;28;20046;-87
2022/06/18 13:46:55;;;;;;;8.35;2.97;;;34.50;44.80;;;;;;4990840;28;20050;-87
2022/06/18 13:49:40;;;;;;;9.82;3.45;;;34.50;44.10;;;;;;4980294;28;20084;-87
2022/06/18 13:52:15;;;;;;;11.80;4.07;;;34.40;45.00;;;;;;4996683;28;20052;-87
2022/06/18 13:54:49;;;;;;;6.93;2.67;;;34.40;43.10;;;;;;4995529;28;20066;-87
2022/06/18 13:57:22;;;;;;;7.72;2.58;;;34.50;44.60;;;;;;4991645;28;20118;-87
2022/06/18 14:00:00;;;;;;;4.88;2.60;;;34.60;45.00;;;;;;4990466;28;20046;-87
2022/06/18 14:02:29;;;;;;;11.70;2.95;;;34.80;44.30;;;;;;4980570;28;20053;-87